Time;durP1;ratioP1;P1;durP2;ratioP2;P2;SDS_P1;SDS_P2;PMS_P1;PMS_P2;Temp;Humidity;BMP_temperature;BMP_pressure;BME280_temperature;BME280_humidity;BME280_pressure;Samples;Min_cycle;Max_cycle;Signal;HPM_P1;HPM_P2
2024/02/07 00:00:18;;;;;;;0.65;0.65;;;;;;;;;;1027891;28;20407;-78
2024/02/07 00:00:52;;;;;;;0.60;0.60;;;;;;;;;;1028141;28;20019;-78
2024/02/07 00:01:24;;;;;;;1.23;1.05;;;;;;;;;;1030433;28;20026;-78
2024/02/07 00:01:58;;;;;;;0.50;0.50;;;;;;;;;;1028503;28;20034;-78
2024/02/07 00:02:29;;;;;;;0.40;0.40;;;;;;;;;;1029487;28;20566;-79
2024/02/07 00:03:00;;;;;;;1.98;1.52;;;;;;;;;;1028386;28;20421;-80
2024/02/07 00:03:31;;;;;;;0.70;0.68;;;;;;;;;;1029390;28;20699;-80
2024/02/07 00:04:03;;;;;;;3.83;1.00;;;;;;;;;;1025158;28;20041;-79
2024/02/07 00:04:36;;;;;;;0.82;0.82;;;;;;;;;;1027761;28;20019;-78
2024/02/07 00:05:08;;;;;;;0.77;0.77;;;;;;;;;;1032028;28;20605;-77
2024/02/07 00:06:20;;;;;;;1.05;1.05;;;;;;;;;;1021525;28;20129;-78
2024/02/07 00:06:53;;;;;;;1.50;1.40;;;;;;;;;;1022662;28;20536;-77
2024/02/07 00:07:28;;;;;;;0.30;0.30;;;;;;;;;;1028343;28;20073;-78
2024/02/07 00:08:01;;;;;;;0.30;0.30;;;;;;;;;;1028589;28;20556;-78
2024/02/07 00:08:32;;;;;;;0.30;0.30;;;;;;;;;;1029753;28;20022;-78
2024/02/07 00:09:03;;;;;;;0.40;0.40;;;;;;;;;;1029789;28;20022;-78
2024/02/07 00:09:36;;;;;;;1.70;0.57;;;;;;;;;;1026040;28;20039;-78
2024/02/07 00:10:11;;;;;;;1.85;1.75;;;;;;;;;;1027761;28;20478;-78
2024/02/07 00:10:42;;;;;;;0.45;0.45;;;;;;;;;;1026730;28;20378;-78
2024/02/07 00:11:14;;;;;;;1.67;1.05;;;;;;;;;;1027432;28;20145;-80
2024/02/07 00:11:46;;;;;;;0.50;0.50;;;;;;;;;;1022152;29;20042;-78
2024/02/07 00:12:21;;;;;;;1.23;1.23;;;;;;;;;;1019634;29;20031;-79
2024/02/07 00:12:54;;;;;;;0.40;0.40;;;;;;;;;;1019950;29;20115;-78
2024/02/07 00:13:26;;;;;;;0.85;0.85;;;;;;;;;;1018656;29;20084;-78
2024/02/07 00:13:58;;;;;;;0.82;0.82;;;;;;;;;;1016104;29;20043;-77
2024/02/07 00:14:30;;;;;;;0.43;0.43;;;;;;;;;;1017562;29;20042;-77
2024/02/07 00:15:06;;;;;;;2.00;1.85;;;;;;;;;;1019043;29;20020;-78
2024/02/07 00:15:42;;;;;;;0.35;0.35;;;;;;;;;;1020677;29;20511;-78
2024/02/07 00:16:19;;;;;;;0.60;0.60;;;;;;;;;;1025890;28;20023;-78
2024/02/07 00:16:51;;;;;;;0.90;0.90;;;;;;;;;;1023337;29;20106;-78
2024/02/07 00:17:22;;;;;;;27.60;1.15;;;;;;;;;;1020339;29;20369;-78
2024/02/07 00:18:01;;;;;;;0.50;0.50;;;;;;;;;;1019418;29;20365;-78
2024/02/07 00:18:37;;;;;;;0.60;0.60;;;;;;;;;;1020393;29;20043;-78
2024/02/07 00:19:24;;;;;;;0.40;0.40;;;;;;;;;;1036880;23;20046;-78
2024/02/07 00:20:43;;;;;;;0.73;0.73;;;;;;;;;;766603;23;20049;-79
2024/02/07 00:21:16;;;;;;;3.60;2.50;;;;;;;;;;1038253;28;20026;-79
2024/02/07 00:21:49;;;;;;;0.50;0.50;;;;;;;;;;1037076;28;20026;-80
2024/02/07 00:22:21;;;;;;;1.42;1.42;;;;;;;;;;1037149;28;20073;-78
2024/02/07 00:22:52;;;;;;;0.35;0.35;;;;;;;;;;1035045;28;20034;-78
2024/02/07 00:23:25;;;;;;;0.40;0.40;;;;;;;;;;1030526;28;20026;-79
2024/02/07 00:23:57;;;;;;;0.40;0.40;;;;;;;;;;1031037;28;20048;-78
2024/02/07 00:24:29;;;;;;;0.40;0.40;;;;;;;;;;1031796;28;20026;-77
2024/02/07 00:25:02;;;;;;;0.50;0.50;;;;;;;;;;1030615;28;20030;-78
2024/02/07 00:25:34;;;;;;;0.40;0.40;;;;;;;;;;1026550;28;20063;-78
2024/02/07 00:26:04;;;;;;;0.88;0.77;;;;;;;;;;1027896;28;20030;-78
2024/02/07 00:26:36;;;;;;;0.43;0.43;;;;;;;;;;1023395;29;20023;-78
2024/02/07 00:27:08;;;;;;;1.00;1.00;;;;;;;;;;1017542;29;20032;-78
2024/02/07 00:27:55;;;;;;;0.77;0.77;;;;;;;;;;1034803;23;21150;-75
2024/02/07 00:28:25;;;;;;;0.50;0.50;;;;;;;;;;1047287;23;20035;-78
2024/02/07 00:28:59;;;;;;;1.13;1.13;;;;;;;;;;1031865;28;20038;-78
2024/02/07 00:29:34;;;;;;;0.40;0.40;;;;;;;;;;1032534;28;20029;-78
2024/02/07 00:30:06;;;;;;;0.50;0.50;;;;;;;;;;1033864;28;20025;-77
2024/02/07 00:30:42;;;;;;;0.30;0.30;;;;;;;;;;1030920;28;20030;-79
2024/02/07 00:31:51;;;;;;;0.95;0.95;;;;;;;;;;1027257;28;20062;-77
2024/02/07 00:32:21;;;;;;;0.57;0.57;;;;;;;;;;1029990;28;20026;-78
2024/02/07 00:32:55;;;;;;;1.17;1.08;;;;;;;;;;1028793;28;20019;-77
2024/02/07 00:33:27;;;;;;;0.95;0.95;;;;;;;;;;1028799;28;20030;-78
2024/02/07 00:34:00;;;;;;;0.45;0.45;;;;;;;;;;1030603;28;20019;-78
2024/02/07 00:34:35;;;;;;;0.68;0.68;;;;;;;;;;1024567;28;20070;-78
2024/02/07 00:35:06;;;;;;;0.45;0.45;;;;;;;;;;1030667;28;20037;-78
2024/02/07 00:35:37;;;;;;;0.30;0.30;;;;;;;;;;1029062;28;20068;-78
2024/02/07 00:36:10;;;;;;;0.95;0.73;;;;;;;;;;1023372;28;20035;-78
2024/02/07 00:36:44;;;;;;;0.60;0.60;;;;;;;;;;1028201;28;20011;-77
2024/02/07 00:37:57;;;;;;;0.50;0.50;;;;;;;;;;1024007;28;20166;-80
2024/02/07 00:38:32;;;;;;;0.40;0.40;;;;;;;;;;1022834;29;20406;-80
2024/02/07 00:39:05;;;;;;;3.13;1.08;;;;;;;;;;1023517;28;20015;-78
2024/02/07 00:40:17;;;;;;;0.95;0.95;;;;;;;;;;1033799;23;20125;-77
2024/02/07 00:40:49;;;;;;;7.22;1.50;;;;;;;;;;1025169;28;20108;-75
2024/02/07 00:41:26;;;;;;;1.30;1.20;;;;;;;;;;1032199;23;20130;-78
2024/02/07 00:43:15;;;;;;;1.80;1.70;;;;;;;;;;1059231;23;20046;-77
2024/02/07 00:43:49;;;;;;;0.32;0.32;;;;;;;;;;1029147;28;20501;-77
2024/02/07 00:44:20;;;;;;;0.88;0.80;;;;;;;;;;1027351;28;20030;-77
2024/02/07 00:44:51;;;;;;;0.50;0.50;;;;;;;;;;1026854;28;20514;-77
2024/02/07 00:45:25;;;;;;;0.50;0.50;;;;;;;;;;1027102;28;20062;-77
2024/02/07 00:45:56;;;;;;;0.43;0.43;;;;;;;;;;1020973;29;20027;-77
2024/02/07 00:46:27;;;;;;;4.68;1.75;;;;;;;;;;1019372;29;20683;-77
2024/02/07 00:47:00;;;;;;;1.52;1.48;;;;;;;;;;1020609;28;20031;-77
2024/02/07 00:47:33;;;;;;;0.80;0.80;;;;;;;;;;1019221;29;20024;-77
2024/02/07 00:48:11;;;;;;;0.40;0.40;;;;;;;;;;1022619;28;20023;-78
2024/02/07 00:48:44;;;;;;;0.77;0.77;;;;;;;;;;1020664;29;20034;-77
2024/02/07 00:49:16;;;;;;;1.13;1.00;;;;;;;;;;1020604;29;20027;-78
2024/02/07 00:50:01;;;;;;;0.90;0.90;;;;;;;;;;1016473;29;20027;-78
2024/02/07 00:50:33;;;;;;;0.38;0.38;;;;;;;;;;1021434;29;20031;-78
2024/02/07 00:51:10;;;;;;;0.50;0.50;;;;;;;;;;1024625;28;20106;-77
2024/02/07 00:51:48;;;;;;;1.40;1.30;;;;;;;;;;1022154;28;20478;-80
2024/02/07 00:53:11;;;;;;;0.40;0.40;;;;;;;;;;1028267;28;20458;-80
2024/02/07 00:53:44;;;;;;;0.70;0.70;;;;;;;;;;1024592;28;20038;-80
2024/02/07 00:54:24;;;;;;;2.22;2.03;;;;;;;;;;1027701;28;20027;-80
2024/02/07 00:55:05;;;;;;;0.30;0.30;;;;;;;;;;1029033;28;20038;-81
2024/02/07 00:55:42;;;;;;;0.35;0.35;;;;;;;;;;1029567;28;20470;-80
2024/02/07 00:56:18;;;;;;;6.22;1.30;;;;;;;;;;1027459;28;20022;-80
2024/02/07 00:56:50;;;;;;;0.40;0.40;;;;;;;;;;1022890;29;20033;-79
2024/02/07 00:57:24;;;;;;;0.30;0.30;;;;;;;;;;1023324;28;20034;-80
2024/02/07 00:58:03;;;;;;;0.50;0.50;;;;;;;;;;1027957;28;20398;-79
2024/02/07 00:58:38;;;;;;;0.50;0.50;;;;;;;;;;1024296;28;20491;-80
2024/02/07 00:59:11;;;;;;;0.43;0.43;;;;;;;;;;1023363;28;20159;-80
2024/02/07 00:59:43;;;;;;;0.40;0.40;;;;;;;;;;1023618;28;20086;-78
2024/02/07 01:00:14;;;;;;;0.88;0.88;;;;;;;;;;1018005;29;20019;-80
2024/02/07 01:00:49;;;;;;;1.35;1.25;;;;;;;;;;1020148;29;20114;-80
2024/02/07 01:01:26;;;;;;;3.45;1.65;;;;;;;;;;1023583;28;20065;-80
2024/02/07 01:02:02;;;;;;;1.13;1.02;;;;;;;;;;1022178;28;20035;-80
2024/02/07 01:02:58;;;;;;;6.75;2.05;;;;;;;;;;1012698;28;20022;-80
2024/02/07 01:03:32;;;;;;;0.30;0.30;;;;;;;;;;1030935;28;20041;-80
2024/02/07 01:04:07;;;;;;;0.98;0.98;;;;;;;;;;1029569;28;20085;-80
2024/02/07 01:04:44;;;;;;;0.77;0.77;;;;;;;;;;1029028;28;20082;-79
2024/02/07 01:06:00;;;;;;;7.20;4.22;;;;;;;;;;1058105;23;20073;-76
2024/02/07 01:06:33;;;;;;;2.50;2.05;;;;;;;;;;1043190;23;20035;-79
2024/02/07 01:07:44;;;;;;;1.48;1.42;;;;;;;;;;1027686;28;20055;-77
2024/02/07 01:08:16;;;;;;;0.35;0.35;;;;;;;;;;1042246;23;20480;-77
2024/02/07 01:08:51;;;;;;;0.90;0.90;;;;;;;;;;1026960;28;20038;-77
2024/02/07 01:09:22;;;;;;;1.85;1.65;;;;;;;;;;1047353;23;20046;-76
2024/02/07 01:09:52;;;;;;;0.40;0.40;;;;;;;;;;1026936;23;20013;-77
2024/02/07 01:10:23;;;;;;;3.70;0.60;;;;;;;;;;1042197;23;20046;-77
2024/02/07 01:10:56;;;;;;;0.88;0.88;;;;;;;;;;1044330;23;20077;-79
2024/02/07 01:11:27;;;;;;;0.30;0.30;;;;;;;;;;1037975;28;20362;-79
2024/02/07 01:12:03;;;;;;;1.20;1.00;;;;;;;;;;1037121;28;20162;-78
2024/02/07 01:12:40;;;;;;;0.82;0.82;;;;;;;;;;1031266;28;20043;-79
2024/02/07 01:13:11;;;;;;;0.47;0.47;;;;;;;;;;1031704;28;20098;-75
2024/02/07 01:13:41;;;;;;;9.55;1.10;;;;;;;;;;1029523;28;20045;-75
2024/02/07 01:14:15;;;;;;;0.85;0.85;;;;;;;;;;1027834;28;20069;-79
2024/02/07 01:14:45;;;;;;;1.23;1.00;;;;;;;;;;1030201;28;20500;-79
2024/02/07 01:15:17;;;;;;;1.50;1.40;;;;;;;;;;1032258;28;20053;-77
2024/02/07 01:15:48;;;;;;;0.40;0.40;;;;;;;;;;1039942;23;20156;-79
2024/02/07 01:16:53;;;;;;;1.25;1.25;;;;;;;;;;1019575;28;20467;-80
2024/02/07 01:17:26;;;;;;;0.30;0.30;;;;;;;;;;1012309;29;20027;-79
2024/02/07 01:17:59;;;;;;;0.50;0.50;;;;;;;;;;1020560;28;20032;-79
2024/02/07 01:19:13;;;;;;;0.50;0.50;;;;;;;;;;1023742;28;20114;-79
2024/02/07 01:19:50;;;;;;;1.45;0.60;;;;;;;;;;1027255;28;20042;-80
2024/02/07 01:20:47;;;;;;;3.58;1.13;;;;;;;;;;1008416;23;20487;-79
2024/02/07 01:21:20;;;;;;;0.60;0.60;;;;;;;;;;1030692;28;20041;-79
2024/02/07 01:21:58;;;;;;;0.52;0.52;;;;;;;;;;1027885;28;20026;-79
2024/02/07 01:22:48;;;;;;;1.20;1.10;;;;;;;;;;1019560;29;20030;-79
2024/02/07 01:23:21;;;;;;;1.27;1.20;;;;;;;;;;1013248;29;20116;-80
2024/02/07 01:24:12;;;;;;;0.55;0.55;;;;;;;;;;981977;27;20092;-80
2024/02/07 01:24:44;;;;;;;0.73;0.73;;;;;;;;;;1011427;29;20579;-78
2024/02/07 01:25:42;;;;;;;0.50;0.50;;;;;;;;;;1016311;29;20568;-77
2024/02/07 01:26:14;;;;;;;0.57;0.57;;;;;;;;;;1017918;29;20043;-77
2024/02/07 01:26:44;;;;;;;1.13;1.13;;;;;;;;;;1030791;23;20035;-76
2024/02/07 01:27:49;;;;;;;1.23;1.23;;;;;;;;;;1013015;29;20055;-76
2024/02/07 01:28:20;;;;;;;1.70;1.63;;;;;;;;;;1014965;29;20131;-78
2024/02/07 01:28:51;;;;;;;5.68;1.05;;;;;;;;;;1014621;29;20032;-78
2024/02/07 01:29:58;;;;;;;1.75;0.98;;;;;;;;;;1017195;29;20590;-77
2024/02/07 01:30:29;;;;;;;2.75;2.53;;;;;;;;;;1019292;29;20059;-79
2024/02/07 01:31:00;;;;;;;5.05;2.13;;;;;;;;;;1041422;23;20059;-78
2024/02/07 01:31:31;;;;;;;3.08;2.80;;;;;;;;;;1028898;28;20382;-80
2024/02/07 01:32:05;;;;;;;2.92;1.73;;;;;;;;;;1023725;28;20045;-80
2024/02/07 01:32:43;;;;;;;2.60;2.42;;;;;;;;;;1016676;29;20043;-80
2024/02/07 01:33:21;;;;;;;0.50;0.50;;;;;;;;;;1019611;29;20484;-79
2024/02/07 01:33:55;;;;;;;0.43;0.43;;;;;;;;;;1017142;29;21471;-79
2024/02/07 01:34:32;;;;;;;0.80;0.80;;;;;;;;;;1017420;28;20027;-79
2024/02/07 01:35:10;;;;;;;2.00;1.30;;;;;;;;;;1017009;29;20598;-78
2024/02/07 01:35:46;;;;;;;0.50;0.50;;;;;;;;;;1019031;28;20523;-80
2024/02/07 01:36:25;;;;;;;0.35;0.35;;;;;;;;;;1015849;29;20385;-79
2024/02/07 01:37:43;;;;;;;2.25;0.88;;;;;;;;;;1168857;23;20085;-77
2024/02/07 01:38:18;;;;;;;1.20;1.13;;;;;;;;;;1045205;23;20047;-81
2024/02/07 01:40:03;;;;;;;3.33;2.40;;;;;;;;;;1008506;23;20061;-76
2024/02/07 01:40:42;;;;;;;3.63;1.95;;;;;;;;;;1036315;23;20026;-77
2024/02/07 01:41:13;;;;;;;;;;;;;;;;;;1045976;23;20014;-76
2024/02/07 01:41:59;;;;;;;1.67;1.58;;;;;;;;;;1067347;23;20578;-77
2024/02/07 01:44:50;;;;;;;0.50;0.50;;;;;;;;;;1027293;28;20050;-79
2024/02/07 01:46:01;;;;;;;4.57;2.35;;;;;;;;;;1021073;28;20047;-81
2024/02/07 01:46:40;;;;;;;2.30;1.38;;;;;;;;;;1027330;28;20038;-80
2024/02/07 01:48:00;;;;;;;0.35;0.35;;;;;;;;;;1046150;23;20046;-79
2024/02/07 01:48:35;;;;;;;0.85;0.85;;;;;;;;;;1024882;28;20034;-79
2024/02/07 01:49:21;;;;;;;1.33;1.23;;;;;;;;;;1007016;28;20501;-80
2024/02/07 01:49:58;;;;;;;8.13;4.68;;;;;;;;;;1012438;28;20057;-80
2024/02/07 01:51:52;;;;;;;3.55;1.40;;;;;;;;;;1057553;23;20062;-78
2024/02/07 01:53:00;;;;;;;0.90;0.90;;;;;;;;;;1047057;23;20112;-77
2024/02/07 01:53:38;;;;;;;1.75;1.65;;;;;;;;;;1046907;23;20037;-79
2024/02/07 01:54:13;;;;;;;1.25;1.15;;;;;;;;;;1021941;28;20094;-79
2024/02/07 01:55:02;;;;;;;4.60;2.20;;;;;;;;;;1018861;28;20130;-79
2024/02/07 01:55:56;;;;;;;1.90;1.58;;;;;;;;;;1096370;23;20156;-75
2024/02/07 01:56:26;;;;;;;2.60;1.15;;;;;;;;;;1030340;28;20026;-76
2024/02/07 01:56:57;;;;;;;2.53;1.55;;;;;;;;;;1029939;28;20037;-75
2024/02/07 01:57:28;;;;;;;1.42;1.35;;;;;;;;;;1028802;28;20041;-75
2024/02/07 01:58:00;;;;;;;2.95;2.75;;;;;;;;;;1031205;28;20034;-76
2024/02/07 01:58:31;;;;;;;1.45;1.05;;;;;;;;;;1031991;28;20030;-77
2024/02/07 01:59:05;;;;;;;2.75;0.93;;;;;;;;;;1086356;23;20561;-78
2024/02/07 02:00:15;;;;;;;0.50;0.50;;;;;;;;;;1023441;28;21145;-79
2024/02/07 02:00:57;;;;;;;0.55;0.55;;;;;;;;;;1028210;28;20046;-79
2024/02/07 02:01:29;;;;;;;1.55;1.10;;;;;;;;;;1026924;28;20026;-79
2024/02/07 02:02:05;;;;;;;2.95;1.92;;;;;;;;;;1026084;28;20029;-80
2024/02/07 02:02:51;;;;;;;2.17;1.20;;;;;;;;;;1027504;23;20342;-77
2024/02/07 02:03:22;;;;;;;0.63;0.63;;;;;;;;;;1026786;28;20040;-77
2024/02/07 02:03:52;;;;;;;1.70;1.60;;;;;;;;;;1026352;28;20041;-77
2024/02/07 02:04:23;;;;;;;1.85;1.75;;;;;;;;;;1027416;28;20094;-78
2024/02/07 02:06:00;;;;;;;1.15;1.05;;;;;;;;;;953570;23;20078;-79
2024/02/07 02:06:37;;;;;;;3.20;2.90;;;;;;;;;;1024514;28;20035;-79
2024/02/07 02:07:11;;;;;;;;;;;;;;;;;;1006580;28;20475;-80
2024/02/07 02:07:47;;;;;;;1.83;1.13;;;;;;;;;;980309;23;20537;-82
2024/02/07 02:08:18;;;;;;;3.15;2.10;;;;;;;;;;1023790;28;20070;-76
2024/02/07 02:08:49;;;;;;;1.60;1.50;;;;;;;;;;1030063;23;20027;-76
2024/02/07 02:09:20;;;;;;;0.30;0.30;;;;;;;;;;1037747;23;20038;-75
2024/02/07 02:10:02;;;;;;;2.97;1.83;;;;;;;;;;1040436;23;20114;-79
2024/02/07 02:11:48;;;;;;;8.55;2.15;;;;;;;;;;1026355;28;20077;-75
2024/02/07 02:12:18;;;;;;;3.20;2.90;;;;;;;;;;1024416;28;20505;-76
2024/02/07 02:12:49;;;;;;;5.03;2.25;;;;;;;;;;1023552;28;20030;-77
2024/02/07 02:13:20;;;;;;;3.05;2.80;;;;;;;;;;1023994;28;20022;-76
2024/02/07 02:13:54;;;;;;;2.70;1.92;;;;;;;;;;1024514;28;20026;-79
2024/02/07 02:14:28;;;;;;;1.67;1.20;;;;;;;;;;994402;23;20058;-79
2024/02/07 02:15:44;;;;;;;10.88;2.40;;;;;;;;;;1001782;23;20223;-76
2024/02/07 02:16:15;;;;;;;2.15;2.05;;;;;;;;;;1029985;28;20026;-76
2024/02/07 02:16:46;;;;;;;0.93;0.93;;;;;;;;;;1029027;28;20037;-77
2024/02/07 02:17:16;;;;;;;1.23;1.15;;;;;;;;;;1027012;28;20097;-77
2024/02/07 02:17:47;;;;;;;1.48;1.42;;;;;;;;;;1039641;23;20488;-76
2024/02/07 02:18:20;;;;;;;13.05;1.85;;;;;;;;;;1020145;29;20070;-77
2024/02/07 02:18:54;;;;;;;0.30;0.30;;;;;;;;;;1021908;28;20058;-76
2024/02/07 02:19:27;;;;;;;2.25;2.15;;;;;;;;;;1020519;29;20031;-76
2024/02/07 02:19:58;;;;;;;0.95;0.93;;;;;;;;;;1015349;29;20032;-77
2024/02/07 02:23:05;;;;;;;1.42;1.33;;;;;;;;;;1031634;28;20105;-75
2024/02/07 02:23:48;;;;;;;1.75;1.65;;;;;;;;;;1031931;28;20124;-76
2024/02/07 02:24:32;;;;;;;0.40;0.40;;;;;;;;;;1033668;23;21274;-77
2024/02/07 02:28:33;;;;;;;0.73;0.73;;;;;;;;;;956266;23;20060;-78
2024/02/07 02:29:58;;;;;;;7.75;1.55;;;;;;;;;;1039373;23;20196;-77
2024/02/07 02:30:50;;;;;;;;;;;;;;;;;;;;;
2024/02/07 02:34:29;;;;;;;1.13;1.13;;;;;;;;;;1027013;26;20077;-76
2024/02/07 02:35:00;;;;;;;1.00;0.98;;;;;;;;;;1024976;28;20038;-76
2024/02/07 02:35:31;;;;;;;1.90;1.75;;;;;;;;;;1025098;28;20105;-77
2024/02/07 02:36:05;;;;;;;2.63;1.75;;;;;;;;;;1025891;28;20097;-75
2024/02/07 02:36:36;;;;;;;2.80;2.55;;;;;;;;;;1030593;28;20078;-76
2024/02/07 02:37:07;;;;;;;4.80;1.98;;;;;;;;;;1030679;28;20249;-79
2024/02/07 02:37:38;;;;;;;1.95;1.17;;;;;;;;;;1025815;28;20037;-76
2024/02/07 02:38:13;;;;;;;0.85;0.77;;;;;;;;;;1039991;23;20019;-76
2024/02/07 02:38:59;;;;;;;1.30;1.30;;;;;;;;;;962251;23;20047;-76
2024/02/07 02:40:54;;;;;;;2.95;0.98;;;;;;;;;;1019992;28;20050;-76
2024/02/07 02:41:24;;;;;;;3.53;3.22;;;;;;;;;;1026931;28;20456;-77
2024/02/07 02:41:56;;;;;;;0.68;0.68;;;;;;;;;;1029524;28;20026;-76
2024/02/07 02:42:26;;;;;;;1.15;1.15;;;;;;;;;;1037048;23;20037;-75
2024/02/07 02:42:58;;;;;;;2.97;2.78;;;;;;;;;;1031683;28;20041;-76
2024/02/07 02:43:33;;;;;;;2.55;2.00;;;;;;;;;;1030795;28;20022;-79
2024/02/07 02:44:06;;;;;;;1.65;1.35;;;;;;;;;;1044079;23;20022;-77
2024/02/07 02:44:39;;;;;;;5.00;2.30;;;;;;;;;;1035892;23;20583;-75
2024/02/07 02:45:10;;;;;;;2.30;1.38;;;;;;;;;;1026866;28;20033;-76
2024/02/07 02:45:41;;;;;;;0.98;0.82;;;;;;;;;;1030443;23;20034;-77
2024/02/07 02:46:15;;;;;;;2.67;2.33;;;;;;;;;;1029217;23;20023;-78
2024/02/07 02:46:46;;;;;;;2.50;2.30;;;;;;;;;;1078410;23;20028;-78
2024/02/07 02:47:19;;;;;;;0.98;0.82;;;;;;;;;;1132156;23;20045;-77
2024/02/07 02:49:14;;;;;;;3.38;0.52;;;;;;;;;;1008495;23;19930;-77
2024/02/07 02:49:53;;;;;;;0.82;0.82;;;;;;;;;;1019950;28;20036;-79
2024/02/07 02:50:39;;;;;;;;;;;;;;;;;;;;;
2024/02/07 02:51:07;;;;;;;0.95;0.95;;;;;;;;;;1016879;29;20135;-76
2024/02/07 02:51:38;;;;;;;4.47;2.17;;;;;;;;;;1040305;23;20045;-77
2024/02/07 02:52:09;;;;;;;1.00;1.00;;;;;;;;;;1035949;23;21494;-77
2024/02/07 02:52:39;;;;;;;1.20;1.13;;;;;;;;;;1020082;29;20057;-77
2024/02/07 02:54:36;;;;;;;12.82;1.55;;;;;;;;;;1182522;23;20014;-77
2024/02/07 02:57:08;;;;;;;0.40;0.40;;;;;;;;;;1072671;23;19961;-79
2024/02/07 02:58:49;;;;;;;0.35;0.35;;;;;;;;;;204989;23;21081;-77
2024/02/07 02:59:20;;;;;;;5.68;2.63;;;;;;;;;;1025840;28;20417;-76
2024/02/07 02:59:54;;;;;;;3.17;2.42;;;;;;;;;;1023982;28;20031;-78
2024/02/07 03:00:26;;;;;;;1.17;1.17;;;;;;;;;;1031434;23;20027;-78
2024/02/07 03:00:58;;;;;;;0.80;0.80;;;;;;;;;;1019474;28;20031;-80
2024/02/07 03:01:30;;;;;;;3.50;1.73;;;;;;;;;;1021628;28;20027;-80
2024/02/07 03:02:08;;;;;;;11.32;2.00;;;;;;;;;;997443;23;20049;-80
2024/02/07 03:02:33;;;;;;;1.35;1.20;;;;;;;;;;1051150;23;20489;-80
2024/02/07 03:03:04;;;;;;;2.50;1.60;;;;;;;;;;1028040;28;20026;-80
2024/02/07 03:03:35;;;;;;;1.55;1.45;;;;;;;;;;1020354;28;20750;-76
2024/02/07 03:04:06;;;;;;;1.08;1.00;;;;;;;;;;1021845;28;20514;-81
2024/02/07 03:04:44;;;;;;;9.55;1.67;;;;;;;;;;1023879;28;20039;-81
2024/02/07 03:06:18;;;;;;;0.80;0.80;;;;;;;;;;1030429;28;19913;-78
2024/02/07 03:08:05;;;;;;;1.88;1.73;;;;;;;;;;1034342;28;20065;-77
2024/02/07 03:08:42;;;;;;;2.15;1.13;;;;;;;;;;1031061;28;20041;-76
2024/02/07 03:09:20;;;;;;;2.40;2.20;;;;;;;;;;1026405;28;20045;-76
2024/02/07 03:09:51;;;;;;;4.90;2.13;;;;;;;;;;1024607;28;20038;-79
2024/02/07 03:10:25;;;;;;;2.90;2.05;;;;;;;;;;1025623;28;20034;-78
2024/02/07 03:10:58;;;;;;;1.55;1.05;;;;;;;;;;1029518;28;20069;-79
2024/02/07 03:11:28;;;;;;;2.45;2.28;;;;;;;;;;1032638;28;20038;-77
2024/02/07 03:11:59;;;;;;;1.20;0.77;;;;;;;;;;1030602;28;20032;-76
2024/02/07 03:12:33;;;;;;;1.95;1.83;;;;;;;;;;1032940;28;20234;-76
2024/02/07 03:13:04;;;;;;;1.70;1.60;;;;;;;;;;1028939;28;20120;-79
2024/02/07 03:13:35;;;;;;;1.35;1.25;;;;;;;;;;1023879;28;20026;-76
2024/02/07 03:14:06;;;;;;;17.13;3.58;;;;;;;;;;1023685;28;20069;-78
2024/02/07 03:14:36;;;;;;;2.75;2.40;;;;;;;;;;1023568;28;20031;-76
2024/02/07 03:15:08;;;;;;;2.88;1.80;;;;;;;;;;1026986;28;20030;-76
2024/02/07 03:15:39;;;;;;;0.40;0.40;;;;;;;;;;1026194;28;20031;-76
2024/02/07 03:16:12;;;;;;;1.10;1.10;;;;;;;;;;1027044;28;20594;-76
2024/02/07 03:16:44;;;;;;;2.83;2.38;;;;;;;;;;1025632;28;20062;-76
2024/02/07 03:17:15;;;;;;;2.97;1.60;;;;;;;;;;1030006;28;20034;-75
2024/02/07 03:17:45;;;;;;;1.13;1.10;;;;;;;;;;1028045;28;20022;-78
2024/02/07 03:18:17;;;;;;;1.48;1.30;;;;;;;;;;1030012;28;20115;-76
2024/02/07 03:18:48;;;;;;;0.47;0.47;;;;;;;;;;1028669;28;20034;-77
2024/02/07 03:19:19;;;;;;;4.95;3.70;;;;;;;;;;1034430;23;20026;-80
2024/02/07 03:19:50;;;;;;;1.60;1.52;;;;;;;;;;1024583;28;20114;-80
2024/02/07 03:20:20;;;;;;;2.00;1.77;;;;;;;;;;1024883;28;20152;-80
2024/02/07 03:20:51;;;;;;;1.55;1.42;;;;;;;;;;1025191;28;20149;-80
2024/02/07 03:21:22;;;;;;;2.03;1.92;;;;;;;;;;1025242;28;20058;-80
2024/02/07 03:21:52;;;;;;;2.13;1.85;;;;;;;;;;1052976;23;20022;-77
2024/02/07 03:22:32;;;;;;;2.03;1.90;;;;;;;;;;1021638;28;20146;-80
2024/02/07 03:23:03;;;;;;;3.40;2.15;;;;;;;;;;1016376;29;20110;-78
2024/02/07 03:23:35;;;;;;;6.50;3.70;;;;;;;;;;1018285;29;20066;-77
2024/02/07 03:24:07;;;;;;;0.80;0.80;;;;;;;;;;1021176;28;20032;-78
2024/02/07 03:24:38;;;;;;;0.73;0.55;;;;;;;;;;1023932;28;20019;-78
2024/02/07 03:25:16;;;;;;;0.55;0.55;;;;;;;;;;1021136;28;20023;-77
2024/02/07 03:25:47;;;;;;;2.17;2.05;;;;;;;;;;1024307;28;20480;-78
2024/02/07 03:26:19;;;;;;;1.40;0.80;;;;;;;;;;1028356;28;20105;-77
2024/02/07 03:26:49;;;;;;;0.20;0.20;;;;;;;;;;1022736;28;20038;-76
2024/02/07 03:27:20;;;;;;;1.83;1.73;;;;;;;;;;1027610;28;20046;-76
2024/02/07 03:27:51;;;;;;;2.83;1.50;;;;;;;;;;1021644;28;20124;-76
2024/02/07 03:28:21;;;;;;;2.85;2.55;;;;;;;;;;1022674;29;20055;-76
2024/02/07 03:28:52;;;;;;;4.85;1.45;;;;;;;;;;1017605;29;20039;-76
2024/02/07 03:29:25;;;;;;;0.98;0.98;;;;;;;;;;1018194;29;20024;-76
2024/02/07 03:29:56;;;;;;;5.65;2.72;;;;;;;;;;1019638;29;20087;-76
2024/02/07 03:30:26;;;;;;;1.85;1.45;;;;;;;;;;1021812;28;20051;-76
2024/02/07 03:30:57;;;;;;;0.63;0.63;;;;;;;;;;1025198;28;20031;-76
2024/02/07 03:31:28;;;;;;;2.08;1.88;;;;;;;;;;1035642;23;20018;-76
2024/02/07 03:31:58;;;;;;;3.40;1.65;;;;;;;;;;1039345;23;20048;-75
2024/02/07 03:32:29;;;;;;;25.67;2.50;;;;;;;;;;1031139;23;20039;-76
2024/02/07 03:33:00;;;;;;;1.25;1.25;;;;;;;;;;1026514;28;20035;-77
2024/02/07 03:33:30;;;;;;;1.30;1.13;;;;;;;;;;1030519;28;20034;-77
2024/02/07 03:34:02;;;;;;;5.03;2.15;;;;;;;;;;1026370;28;20027;-77
2024/02/07 03:34:33;;;;;;;3.08;1.83;;;;;;;;;;1023666;28;20026;-76
2024/02/07 03:35:05;;;;;;;0.45;0.45;;;;;;;;;;1023282;28;20024;-77
2024/02/07 03:35:37;;;;;;;6.68;2.70;;;;;;;;;;1031449;23;20030;-77
2024/02/07 03:36:08;;;;;;;15.93;3.13;;;;;;;;;;1024939;28;20023;-77
2024/02/07 03:36:39;;;;;;;13.98;2.70;;;;;;;;;;1023047;28;20039;-77
2024/02/07 03:37:11;;;;;;;8.35;3.53;;;;;;;;;;1023584;28;20684;-77
2024/02/07 03:37:43;;;;;;;1.90;1.75;;;;;;;;;;1027531;23;20036;-77
2024/02/07 03:38:16;;;;;;;4.18;1.70;;;;;;;;;;1024036;28;20043;-76
2024/02/07 03:38:50;;;;;;;1.42;1.33;;;;;;;;;;1026218;28;20470;-77
2024/02/07 03:39:24;;;;;;;6.40;3.70;;;;;;;;;;1022641;28;20066;-78
2024/02/07 03:39:54;;;;;;;11.30;3.03;;;;;;;;;;1024892;28;20515;-76
2024/02/07 03:40:25;;;;;;;10.30;1.70;;;;;;;;;;1018955;29;20034;-76
2024/02/07 03:40:57;;;;;;;15.20;2.83;;;;;;;;;;1019929;28;20084;-78
2024/02/07 03:42:08;;;;;;;0.85;0.80;;;;;;;;;;1022543;28;20505;-77
2024/02/07 03:42:52;;;;;;;3.42;1.27;;;;;;;;;;1018507;29;20640;-78
2024/02/07 03:43:39;;;;;;;2.80;2.20;;;;;;;;;;1024707;28;20438;-78
2024/02/07 03:44:12;;;;;;;2.65;2.47;;;;;;;;;;1025282;28;20031;-77
2024/02/07 03:44:43;;;;;;;1.25;1.15;;;;;;;;;;1028112;28;20054;-76
2024/02/07 03:45:17;;;;;;;5.68;1.15;;;;;;;;;;1027123;28;20035;-77
2024/02/07 03:45:51;;;;;;;9.38;1.35;;;;;;;;;;1027596;28;20114;-76
2024/02/07 03:46:23;;;;;;;5.80;2.03;;;;;;;;;;1029820;28;20030;-77
2024/02/07 03:46:54;;;;;;;3.08;1.75;;;;;;;;;;1028430;28;20518;-77
2024/02/07 03:47:34;;;;;;;1.67;1.58;;;;;;;;;;1023752;28;20528;-77
2024/02/07 03:48:12;;;;;;;2.05;1.85;;;;;;;;;;1020350;29;20032;-77
2024/02/07 03:48:43;;;;;;;1.15;1.08;;;;;;;;;;1027948;23;20015;-77
2024/02/07 03:49:13;;;;;;;8.18;1.73;;;;;;;;;;1022620;28;20054;-77
2024/02/07 03:49:44;;;;;;;6.35;1.75;;;;;;;;;;1020573;29;20933;-77
2024/02/07 03:50:16;;;;;;;0.95;0.95;;;;;;;;;;1015007;29;20051;-76
2024/02/07 03:50:48;;;;;;;8.40;2.63;;;;;;;;;;1015200;29;20111;-76
2024/02/07 03:51:26;;;;;;;0.52;0.52;;;;;;;;;;1021312;28;20059;-75
2024/02/07 03:52:00;;;;;;;2.38;2.08;;;;;;;;;;1024626;28;20562;-77
2024/02/07 03:52:31;;;;;;;1.75;1.65;;;;;;;;;;1022804;28;20649;-77
2024/02/07 03:53:07;;;;;;;22.00;1.30;;;;;;;;;;1022026;28;20491;-77
2024/02/07 03:53:47;;;;;;;2.40;1.38;;;;;;;;;;1022534;28;20055;-78
2024/02/07 03:54:18;;;;;;;2.92;2.53;;;;;;;;;;1022260;29;20114;-77
2024/02/07 03:54:52;;;;;;;1.38;1.27;;;;;;;;;;1032274;23;20048;-79
2024/02/07 03:55:57;;;;;;;15.93;4.95;;;;;;;;;;1024670;28;20074;-79
2024/02/07 03:56:59;;;;;;;13.03;5.00;;;;;;;;;;1032165;23;20138;-80
2024/02/07 03:57:31;;;;;;;10.20;3.47;;;;;;;;;;1024846;28;20125;-82
2024/02/07 03:58:06;;;;;;;12.88;3.35;;;;;;;;;;1057391;23;20038;-77
2024/02/07 03:58:41;;;;;;;5.28;4.85;;;;;;;;;;1023574;28;20370;-76
2024/02/07 03:59:14;;;;;;;7.53;4.15;;;;;;;;;;1020208;29;20032;-78
2024/02/07 03:59:51;;;;;;;3.55;2.42;;;;;;;;;;1046291;23;20115;-76
2024/02/07 04:00:22;;;;;;;7.80;4.95;;;;;;;;;;1023220;28;20043;-76
2024/02/07 04:00:54;;;;;;;12.02;5.75;;;;;;;;;;1021661;29;20031;-77
2024/02/07 04:01:26;;;;;;;19.38;6.78;;;;;;;;;;1023215;28;20098;-78
2024/02/07 04:01:56;;;;;;;8.32;5.00;;;;;;;;;;1027522;28;20023;-77
2024/02/07 04:02:27;;;;;;;12.65;8.27;;;;;;;;;;1025042;28;20038;-77
2024/02/07 04:02:58;;;;;;;12.63;6.53;;;;;;;;;;1023231;28;20102;-77
2024/02/07 04:03:29;;;;;;;11.18;5.90;;;;;;;;;;1022229;28;20103;-77
2024/02/07 04:04:00;;;;;;;5.32;3.35;;;;;;;;;;1022199;28;20208;-78
2024/02/07 04:04:35;;;;;;;9.25;4.72;;;;;;;;;;1022333;28;20019;-78